Sapucai-Mirim, Brazil
Current Conditions -  °F | °C
As of 2:00 PM on Saturday 25 Oct 2014 (Local Time) from SBSJ Reporting Station
Few Clouds Few Clouds  
Wind Chill: 86°   Ceiling: Unl
Heat Index: 86°   Visibility: 6mi
Dew Point: 61°   Wind: 6mph
Humidity: 43%   Direction: 250°WSW
Pressure: 29.97"   Gusts: NA
Location:  22.75°S, 45.74°W
Report Text: SBSJ 251600Z 25005KT 9999 FEW040 30/16 Q1015
Loading
Personal Weather Stations






























Interactive Weather Map
Tropical Storm Tracking
New forecast layout! Learn more

10-Day Weather Forecast

Advertisements
Track Severe Weather on mobile